sensor_id;sensor_type;location;lat;lon;timestamp;pressure;altitude;pressure_sealevel;temperature;humidity
58761;BME280;44529;47.464;19.014;2023-02-01T00:01:36;100287.72;;;2.70;97.21
58761;BME280;44529;47.464;19.014;2023-02-01T00:05:17;100287.16;;;2.63;96.94
58761;BME280;44529;47.464;19.014;2023-02-01T00:08:52;100288.75;;;2.64;96.46
58761;BME280;44529;47.464;19.014;2023-02-01T00:12:33;100299.47;;;2.69;95.57
58761;BME280;44529;47.464;19.014;2023-02-01T00:16:22;100291.00;;;2.82;94.88
58761;BME280;44529;47.464;19.014;2023-02-01T00:20:11;100276.56;;;2.83;93.76
58761;BME280;44529;47.464;19.014;2023-02-01T00:23:55;100267.50;;;2.79;93.40
58761;BME280;44529;47.464;19.014;2023-02-01T00:28:06;100289.75;;;3.00;93.25
58761;BME280;44529;47.464;19.014;2023-02-01T00:31:30;100288.72;;;3.06;90.47
58761;BME280;44529;47.464;19.014;2023-02-01T00:35:33;100292.78;;;3.19;89.63
58761;BME280;44529;47.464;19.014;2023-02-01T00:40:09;100295.75;;;3.22;89.31
58761;BME280;44529;47.464;19.014;2023-02-01T00:43:47;100293.59;;;3.24;89.71
58761;BME280;44529;47.464;19.014;2023-02-01T00:47:35;100292.81;;;3.24;89.19
58761;BME280;44529;47.464;19.014;2023-02-01T00:51:19;100296.00;;;3.16;89.94
58761;BME280;44529;47.464;19.014;2023-02-01T00:55:24;100273.81;;;3.20;88.49
58761;BME280;44529;47.464;19.014;2023-02-01T00:59:18;100277.56;;;3.24;88.94
58761;BME280;44529;47.464;19.014;2023-02-01T01:03:32;100277.31;;;3.26;88.32
58761;BME280;44529;47.464;19.014;2023-02-01T01:07:28;100271.47;;;3.39;87.54
58761;BME280;44529;47.464;19.014;2023-02-01T01:11:22;100275.75;;;3.40;86.84
58761;BME280;44529;47.464;19.014;2023-02-01T01:14:29;100279.50;;;3.39;87.05
58761;BME280;44529;47.464;19.014;2023-02-01T01:17:35;100267.44;;;3.32;88.15
58761;BME280;44529;47.464;19.014;2023-02-01T01:20:49;100244.44;;;3.25;89.14
58761;BME280;44529;47.464;19.014;2023-02-01T01:25:06;100247.91;;;3.26;88.53
58761;BME280;44529;47.464;19.014;2023-02-01T01:29:03;100232.94;;;3.20;88.21
58761;BME280;44529;47.464;19.014;2023-02-01T01:33:01;100235.34;;;3.16;88.24
58761;BME280;44529;47.464;19.014;2023-02-01T01:36:28;100217.44;;;3.12;88.21
58761;BME280;44529;47.464;19.014;2023-02-01T01:40:09;100209.72;;;3.25;86.33
58761;BME280;44529;47.464;19.014;2023-02-01T01:43:19;100226.28;;;3.22;87.15
58761;BME280;44529;47.464;19.014;2023-02-01T01:46:37;100233.19;;;3.13;87.12
58761;BME280;44529;47.464;19.014;2023-02-01T01:49:45;100220.06;;;3.07;87.60
58761;BME280;44529;47.464;19.014;2023-02-01T01:53:00;100213.94;;;3.06;86.99
58761;BME280;44529;47.464;19.014;2023-02-01T02:01:22;100214.75;;;3.12;87.13
58761;BME280;44529;47.464;19.014;2023-02-01T02:05:58;100212.34;;;3.10;86.97
58761;BME280;44529;47.464;19.014;2023-02-01T02:10:08;100223.78;;;3.01;86.95
58761;BME280;44529;47.464;19.014;2023-02-01T02:13:52;100212.91;;;3.17;85.86
58761;BME280;44529;47.464;19.014;2023-02-01T02:18:30;100204.88;;;3.17;85.43
58761;BME280;44529;47.464;19.014;2023-02-01T02:35:50;100211.59;;;3.30;84.62
58761;BME280;44529;47.464;19.014;2023-02-01T02:39:54;100203.03;;;3.28;84.47
58761;BME280;44529;47.464;19.014;2023-02-01T02:43:23;100209.41;;;3.22;85.11
58761;BME280;44529;47.464;19.014;2023-02-01T02:46:51;100196.87;;;3.17;85.34
58761;BME280;44529;47.464;19.014;2023-02-01T02:50:33;100207.56;;;3.17;85.50
58761;BME280;44529;47.464;19.014;2023-02-01T02:54:18;100191.25;;;3.19;85.16
58761;BME280;44529;47.464;19.014;2023-02-01T02:57:52;100193.94;;;3.19;84.83
58761;BME280;44529;47.464;19.014;2023-02-01T03:01:32;100199.00;;;3.10;85.68
58761;BME280;44529;47.464;19.014;2023-02-01T03:05:43;100188.84;;;3.12;85.87
58761;BME280;44529;47.464;19.014;2023-02-01T03:09:51;100184.81;;;3.05;86.11
58761;BME280;44529;47.464;19.014;2023-02-01T03:14:00;100185.09;;;3.03;85.48
58761;BME280;44529;47.464;19.014;2023-02-01T03:18:26;100184.25;;;3.03;85.51
58761;BME280;44529;47.464;19.014;2023-02-01T03:22:36;100189.59;;;3.03;86.10
58761;BME280;44529;47.464;19.014;2023-02-01T03:26:22;100191.72;;;3.01;85.53
58761;BME280;44529;47.464;19.014;2023-02-01T03:30:43;100190.44;;;3.03;85.97
58761;BME280;44529;47.464;19.014;2023-02-01T03:34:33;100196.56;;;3.04;85.75
58761;BME280;44529;47.464;19.014;2023-02-01T03:42:50;100197.69;;;3.33;84.29
58761;BME280;44529;47.464;19.014;2023-02-01T03:46:10;100192.66;;;3.52;83.61
58761;BME280;44529;47.464;19.014;2023-02-01T03:49:27;100180.88;;;3.73;81.91
58761;BME280;44529;47.464;19.014;2023-02-01T03:52:40;100183.03;;;3.76;81.75
58761;BME280;44529;47.464;19.014;2023-02-01T03:55:58;100178.50;;;3.82;81.11
58761;BME280;44529;47.464;19.014;2023-02-01T03:59:08;100169.16;;;3.74;81.66
58761;BME280;44529;47.464;19.014;2023-02-01T04:02:18;100172.06;;;3.73;81.90
58761;BME280;44529;47.464;19.014;2023-02-01T04:05:25;100172.87;;;3.78;81.62
58761;BME280;44529;47.464;19.014;2023-02-01T04:08:35;100176.59;;;3.93;80.42
58761;BME280;44529;47.464;19.014;2023-02-01T04:11:59;100176.88;;;4.06;79.55
58761;BME280;44529;47.464;19.014;2023-02-01T04:15:03;100194.78;;;4.21;78.74
58761;BME280;44529;47.464;19.014;2023-02-01T04:18:15;100191.31;;;4.26;78.23
58761;BME280;44529;47.464;19.014;2023-02-01T04:21:29;100185.38;;;4.29;77.96
58761;BME280;44529;47.464;19.014;2023-02-01T04:24:38;100194.50;;;4.23;78.27
58761;BME280;44529;47.464;19.014;2023-02-01T04:27:47;100187.53;;;4.27;78.44
58761;BME280;44529;47.464;19.014;2023-02-01T04:30:59;100176.28;;;4.25;78.37
58761;BME280;44529;47.464;19.014;2023-02-01T04:34:09;100181.41;;;4.26;78.02
58761;BME280;44529;47.464;19.014;2023-02-01T04:37:23;100191.25;;;4.36;77.59
58761;BME280;44529;47.464;19.014;2023-02-01T04:40:38;100188.88;;;4.34;77.31
58761;BME280;44529;47.464;19.014;2023-02-01T04:43:43;100201.69;;;4.43;76.98
58761;BME280;44529;47.464;19.014;2023-02-01T04:46:46;100194.97;;;4.50;76.28
58761;BME280;44529;47.464;19.014;2023-02-01T04:49:51;100211.06;;;4.45;76.77
58761;BME280;44529;47.464;19.014;2023-02-01T04:52:55;100191.75;;;4.53;76.11
58761;BME280;44529;47.464;19.014;2023-02-01T04:55:59;100189.59;;;4.55;75.93
58761;BME280;44529;47.464;19.014;2023-02-01T04:59:02;100192.28;;;4.50;76.53
58761;BME280;44529;47.464;19.014;2023-02-01T05:02:06;100197.13;;;4.48;76.71
58761;BME280;44529;47.464;19.014;2023-02-01T05:05:09;100196.03;;;4.49;76.75
58761;BME280;44529;47.464;19.014;2023-02-01T05:08:15;100197.41;;;4.52;75.71
58761;BME280;44529;47.464;19.014;2023-02-01T05:11:18;100209.41;;;4.65;75.11
58761;BME280;44529;47.464;19.014;2023-02-01T05:14:39;100208.06;;;4.57;75.10
58761;BME280;44529;47.464;19.014;2023-02-01T05:17:41;100190.41;;;4.56;74.76
58761;BME280;44529;47.464;19.014;2023-02-01T05:20:45;100203.53;;;4.57;74.57
58761;BME280;44529;47.464;19.014;2023-02-01T05:23:47;100210.50;;;4.53;74.62
58761;BME280;44529;47.464;19.014;2023-02-01T05:27:08;100205.94;;;4.54;74.92
58761;BME280;44529;47.464;19.014;2023-02-01T05:30:10;100196.59;;;4.46;75.05
58761;BME280;44529;47.464;19.014;2023-02-01T05:33:16;100197.63;;;4.55;75.41
58761;BME280;44529;47.464;19.014;2023-02-01T05:36:19;100200.31;;;4.55;75.61
58761;BME280;44529;47.464;19.014;2023-02-01T05:39:23;100198.72;;;4.54;75.73
58761;BME280;44529;47.464;19.014;2023-02-01T05:42:26;100195.50;;;4.52;76.04
58761;BME280;44529;47.464;19.014;2023-02-01T05:45:29;100182.38;;;4.56;75.75
58761;BME280;44529;47.464;19.014;2023-02-01T05:48:31;100178.38;;;4.58;75.82
58761;BME280;44529;47.464;19.014;2023-02-01T05:51:34;100195.00;;;4.45;76.49
58761;BME280;44529;47.464;19.014;2023-02-01T05:54:36;100193.66;;;4.43;76.58
58761;BME280;44529;47.464;19.014;2023-02-01T05:57:39;100189.66;;;4.30;77.06
58761;BME280;44529;47.464;19.014;2023-02-01T06:00:41;100201.97;;;4.46;76.11
58761;BME280;44529;47.464;19.014;2023-02-01T06:03:45;100207.25;;;4.56;75.43
58761;BME280;44529;47.464;19.014;2023-02-01T06:06:47;100223.09;;;4.48;75.98
58761;BME280;44529;47.464;19.014;2023-02-01T06:09:52;100213.19;;;4.53;76.19
58761;BME280;44529;47.464;19.014;2023-02-01T06:12:55;100212.09;;;4.54;76.22
58761;BME280;44529;47.464;19.014;2023-02-01T06:15:57;100198.72;;;4.54;75.52
58761;BME280;44529;47.464;19.014;2023-02-01T06:19:00;100201.91;;;4.56;75.52
58761;BME280;44529;47.464;19.014;2023-02-01T06:22:03;100206.75;;;4.59;75.29
58761;BME280;44529;47.464;19.014;2023-02-01T06:25:09;100227.13;;;4.45;75.85
58761;BME280;44529;47.464;19.014;2023-02-01T06:28:13;100231.69;;;4.40;76.58
58761;BME280;44529;47.464;19.014;2023-02-01T06:31:15;100234.59;;;4.58;75.49
58761;BME280;44529;47.464;19.014;2023-02-01T06:34:18;100246.63;;;4.66;75.23
58761;BME280;44529;47.464;19.014;2023-02-01T06:37:24;100242.06;;;4.72;74.85
58761;BME280;44529;47.464;19.014;2023-02-01T06:40:32;100247.66;;;4.75;74.74
58761;BME280;44529;47.464;19.014;2023-02-01T06:43:36;100242.06;;;4.72;74.58
58761;BME280;44529;47.464;19.014;2023-02-01T06:46:40;100241.50;;;4.70;74.86
58761;BME280;44529;47.464;19.014;2023-02-01T06:49:43;100245.81;;;4.66;75.12
58761;BME280;44529;47.464;19.014;2023-02-01T06:52:45;100230.56;;;4.66;74.83
58761;BME280;44529;47.464;19.014;2023-02-01T06:55:53;100239.59;;;4.80;74.24
58761;BME280;44529;47.464;19.014;2023-02-01T06:58:59;100238.00;;;4.79;74.33
58761;BME280;44529;47.464;19.014;2023-02-01T07:02:02;100230.22;;;4.83;74.32
58761;BME280;44529;47.464;19.014;2023-02-01T07:05:06;100250.31;;;4.80;74.29
58761;BME280;44529;47.464;19.014;2023-02-01T07:08:10;100241.47;;;4.85;73.95
58761;BME280;44529;47.464;19.014;2023-02-01T07:11:16;100245.75;;;4.91;73.73
58761;BME280;44529;47.464;19.014;2023-02-01T07:14:24;100258.59;;;4.89;73.62
58761;BME280;44529;47.464;19.014;2023-02-01T07:17:30;100266.03;;;5.02;73.17
58761;BME280;44529;47.464;19.014;2023-02-01T07:20:32;100250.25;;;5.01;72.98
58761;BME280;44529;47.464;19.014;2023-02-01T07:23:38;100271.97;;;4.99;73.12
58761;BME280;44529;47.464;19.014;2023-02-01T07:26:41;100276.25;;;5.00;73.38
58761;BME280;44529;47.464;19.014;2023-02-01T07:29:44;100274.13;;;4.92;73.52
58761;BME280;44529;47.464;19.014;2023-02-01T07:32:47;100280.00;;;4.94;73.39
58761;BME280;44529;47.464;19.014;2023-02-01T07:35:50;100284.34;;;4.90;73.42
58761;BME280;44529;47.464;19.014;2023-02-01T07:38:52;100278.94;;;4.95;73.50
58761;BME280;44529;47.464;19.014;2023-02-01T07:41:58;100283.47;;;5.00;73.23
58761;BME280;44529;47.464;19.014;2023-02-01T07:45:03;100291.75;;;5.08;73.33
58761;BME280;44529;47.464;19.014;2023-02-01T07:48:23;100289.06;;;5.13;73.15
58761;BME280;44529;47.464;19.014;2023-02-01T07:51:26;100291.22;;;5.06;72.97
58761;BME280;44529;47.464;19.014;2023-02-01T07:54:29;100288.75;;;5.20;72.58
58761;BME280;44529;47.464;19.014;2023-02-01T07:57:35;100283.34;;;5.35;71.41
58761;BME280;44529;47.464;19.014;2023-02-01T08:00:39;100304.31;;;5.18;72.25
58761;BME280;44529;47.464;19.014;2023-02-01T08:04:03;100288.50;;;5.22;71.40
58761;BME280;44529;47.464;19.014;2023-02-01T08:07:05;100284.16;;;5.31;72.09
58761;BME280;44529;47.464;19.014;2023-02-01T08:10:08;100278.00;;;5.30;72.19
58761;BME280;44529;47.464;19.014;2023-02-01T08:13:14;100298.63;;;5.35;72.42
58761;BME280;44529;47.464;19.014;2023-02-01T08:16:19;100301.22;;;5.55;71.10
58761;BME280;44529;47.464;19.014;2023-02-01T08:19:22;100290.72;;;5.59;70.19
58761;BME280;44529;47.464;19.014;2023-02-01T08:22:26;100293.16;;;5.55;69.98
58761;BME280;44529;47.464;19.014;2023-02-01T08:25:32;100302.22;;;5.64;69.07
58761;BME280;44529;47.464;19.014;2023-02-01T08:28:52;100303.91;;;5.55;71.00
58761;BME280;44529;47.464;19.014;2023-02-01T08:31:57;100325.88;;;5.52;71.05
58761;BME280;44529;47.464;19.014;2023-02-01T08:35:29;100329.13;;;5.54;71.38
58761;BME280;44529;47.464;19.014;2023-02-01T08:38:45;100329.16;;;5.44;71.33
58761;BME280;44529;47.464;19.014;2023-02-01T08:41:47;100343.62;;;5.48;70.91
58761;BME280;44529;47.464;19.014;2023-02-01T08:45:20;100337.75;;;5.41;72.22
58761;BME280;44529;47.464;19.014;2023-02-01T08:48:31;100333.38;;;5.60;71.17
58761;BME280;44529;47.464;19.014;2023-02-01T08:51:34;100323.75;;;5.54;72.10
58761;BME280;44529;47.464;19.014;2023-02-01T08:54:42;100315.72;;;5.49;72.73
58761;BME280;44529;47.464;19.014;2023-02-01T08:58:15;100318.44;;;5.39;72.43
58761;BME280;44529;47.464;19.014;2023-02-01T09:01:24;100319.81;;;5.36;72.82
58761;BME280;44529;47.464;19.014;2023-02-01T09:04:28;100316.75;;;5.53;72.31
58761;BME280;44529;47.464;19.014;2023-02-01T09:07:32;100318.87;;;5.61;72.15
58761;BME280;44529;47.464;19.014;2023-02-01T09:10:38;100325.81;;;5.67;71.26
58761;BME280;44529;47.464;19.014;2023-02-01T09:13:47;100329.03;;;5.69;71.53
58761;BME280;44529;47.464;19.014;2023-02-01T09:16:50;100317.16;;;5.81;71.00
58761;BME280;44529;47.464;19.014;2023-02-01T09:19:53;100304.72;;;6.00;70.43
58761;BME280;44529;47.464;19.014;2023-02-01T09:22:56;100310.53;;;6.12;69.89
58761;BME280;44529;47.464;19.014;2023-02-01T09:26:02;100308.53;;;6.28;69.82
58761;BME280;44529;47.464;19.014;2023-02-01T09:29:07;100302.28;;;6.38;68.86
58761;BME280;44529;47.464;19.014;2023-02-01T09:32:13;100304.81;;;6.53;68.31
58761;BME280;44529;47.464;19.014;2023-02-01T09:35:15;100303.34;;;6.37;69.17
58761;BME280;44529;47.464;19.014;2023-02-01T09:38:22;100315.72;;;6.38;69.49
58761;BME280;44529;47.464;19.014;2023-02-01T09:45:03;100321.31;;;6.70;67.86
58761;BME280;44529;47.464;19.014;2023-02-01T09:48:15;100329.09;;;6.72;68.12
58761;BME280;44529;47.464;19.014;2023-02-01T09:51:49;100342.06;;;6.65;68.31
58761;BME280;44529;47.464;19.014;2023-02-01T09:54:59;100329.19;;;6.62;69.04
58761;BME280;44529;47.464;19.014;2023-02-01T10:01:37;100306.94;;;6.56;69.97
58761;BME280;44529;47.464;19.014;2023-02-01T10:04:48;100313.81;;;6.67;69.09
58761;BME280;44529;47.464;19.014;2023-02-01T10:15:02;100325.56;;;6.76;69.46
58761;BME280;44529;47.464;19.014;2023-02-01T10:18:18;100294.22;;;6.67;70.08
58761;BME280;44529;47.464;19.014;2023-02-01T10:21:55;100260.38;;;6.66;70.02
58761;BME280;44529;47.464;19.014;2023-02-01T10:25:36;100256.88;;;6.65;70.04
58761;BME280;44529;47.464;19.014;2023-02-01T10:28:41;100244.00;;;6.62;69.98
58761;BME280;44529;47.464;19.014;2023-02-01T10:31:48;100241.41;;;6.57;70.29
58761;BME280;44529;47.464;19.014;2023-02-01T10:35:31;100254.59;;;6.54;70.72
58761;BME280;44529;47.464;19.014;2023-02-01T10:46:29;100251.09;;;6.53;72.61
58761;BME280;44529;47.464;19.014;2023-02-01T10:49:46;100247.28;;;6.59;72.08
58761;BME280;44529;47.464;19.014;2023-02-01T10:52:55;100262.81;;;6.62;71.71
58761;BME280;44529;47.464;19.014;2023-02-01T10:56:08;100250.84;;;6.49;71.95
58761;BME280;44529;47.464;19.014;2023-02-01T10:59:31;100245.09;;;6.61;72.75
58761;BME280;44529;47.464;19.014;2023-02-01T11:02:45;100250.37;;;6.71;71.65
58761;BME280;44529;47.464;19.014;2023-02-01T11:05:48;100239.72;;;6.61;71.98
58761;BME280;44529;47.464;19.014;2023-02-01T11:09:23;100236.97;;;6.42;73.67
58761;BME280;44529;47.464;19.014;2023-02-01T11:13:07;100230.56;;;6.62;73.16
58761;BME280;44529;47.464;19.014;2023-02-01T11:16:53;100222.81;;;6.85;71.46
58761;BME280;44529;47.464;19.014;2023-02-01T11:20:49;100219.72;;;6.72;72.46
58761;BME280;44529;47.464;19.014;2023-02-01T11:36:22;100202.78;;;6.48;78.69
58761;BME280;44529;47.464;19.014;2023-02-01T11:39:33;100189.34;;;6.24;79.33
58761;BME280;44529;47.464;19.014;2023-02-01T11:42:53;100179.72;;;6.18;79.95
58761;BME280;44529;47.464;19.014;2023-02-01T11:46:02;100186.47;;;6.15;81.08
58761;BME280;44529;47.464;19.014;2023-02-01T11:49:21;100179.97;;;5.92;85.30
58761;BME280;44529;47.464;19.014;2023-02-01T11:56:09;100164.28;;;5.76;86.21
58761;BME280;44529;47.464;19.014;2023-02-01T11:59:22;100160.38;;;5.92;85.10
58761;BME280;44529;47.464;19.014;2023-02-01T12:14:03;100155.44;;;5.41;89.94
58761;BME280;44529;47.464;19.014;2023-02-01T12:21:04;100153.53;;;5.41;91.50
58761;BME280;44529;47.464;19.014;2023-02-01T12:24:37;100154.22;;;5.18;92.39
58761;BME280;44529;47.464;19.014;2023-02-01T12:45:01;100175.94;;;4.57;100.00
58761;BME280;44529;47.464;19.014;2023-02-01T12:51:23;100179.75;;;4.41;100.00
58761;BME280;44529;47.464;19.014;2023-02-01T12:54:45;100184.31;;;4.40;100.00
58761;BME280;44529;47.464;19.014;2023-02-01T12:57:56;100170.13;;;4.29;100.00
58761;BME280;44529;47.464;19.014;2023-02-01T13:05:04;100152.16;;;4.45;100.00
58761;BME280;44529;47.464;19.014;2023-02-01T13:08:13;100139.81;;;4.54;100.00
58761;BME280;44529;47.464;19.014;2023-02-01T13:11:43;100126.41;;;4.59;100.00
58761;BME280;44529;47.464;19.014;2023-02-01T13:23:54;100111.66;;;4.57;100.00
58761;BME280;44529;47.464;19.014;2023-02-01T13:27:13;100113.84;;;4.50;100.00
58761;BME280;44529;47.464;19.014;2023-02-01T13:57:41;100119.47;;;4.48;100.00
58761;BME280;44529;47.464;19.014;2023-02-01T14:04:50;100109.62;;;4.39;100.00
58761;BME280;44529;47.464;19.014;2023-02-01T14:09:19;100120.03;;;4.45;100.00
58761;BME280;44529;47.464;19.014;2023-02-01T14:17:35;100089.69;;;4.70;100.00
58761;BME280;44529;47.464;19.014;2023-02-01T14:21:10;100092.06;;;4.77;100.00
58761;BME280;44529;47.464;19.014;2023-02-01T14:36:13;100117.44;;;4.84;100.00
58761;BME280;44529;47.464;19.014;2023-02-01T14:43:50;100120.84;;;4.95;100.00
58761;BME280;44529;47.464;19.014;2023-02-01T14:47:09;100130.53;;;4.96;99.02
58761;BME280;44529;47.464;19.014;2023-02-01T14:53:57;100132.59;;;5.04;96.81
58761;BME280;44529;47.464;19.014;2023-02-01T14:57:02;100118.87;;;5.16;95.69
58761;BME280;44529;47.464;19.014;2023-02-01T15:01:35;100115.81;;;5.28;94.18
58761;BME280;44529;47.464;19.014;2023-02-01T15:04:42;100116.66;;;5.23;94.70
58761;BME280;44529;47.464;19.014;2023-02-01T15:07:59;100115.13;;;5.12;96.91
58761;BME280;44529;47.464;19.014;2023-02-01T15:11:31;100154.19;;;5.23;95.08
58761;BME280;44529;47.464;19.014;2023-02-01T15:15:23;100118.75;;;5.31;91.10
58761;BME280;44529;47.464;19.014;2023-02-01T15:19:21;100109.44;;;5.24;89.63
58761;BME280;44529;47.464;19.014;2023-02-01T15:34:14;100112.13;;;5.24;87.78
58761;BME280;44529;47.464;19.014;2023-02-01T15:54:42;100115.91;;;5.18;87.37
58761;BME280;44529;47.464;19.014;2023-02-01T16:15:14;100167.28;;;5.30;82.07
58761;BME280;44529;47.464;19.014;2023-02-01T16:18:36;100202.69;;;5.27;84.38
58761;BME280;44529;47.464;19.014;2023-02-01T16:22:14;100199.47;;;5.25;85.69
58761;BME280;44529;47.464;19.014;2023-02-01T16:25:36;100194.72;;;5.16;88.28
58761;BME280;44529;47.464;19.014;2023-02-01T16:29:10;100168.94;;;5.21;87.05
58761;BME280;44529;47.464;19.014;2023-02-01T16:32:37;100179.72;;;5.15;87.83
58761;BME280;44529;47.464;19.014;2023-02-01T16:36:08;100160.47;;;5.03;88.24
58761;BME280;44529;47.464;19.014;2023-02-01T16:40:00;100180.81;;;5.09;87.90
58761;BME280;44529;47.464;19.014;2023-02-01T16:44:01;100163.09;;;5.13;87.68
58761;BME280;44529;47.464;19.014;2023-02-01T16:47:49;100145.41;;;5.12;86.86
58761;BME280;44529;47.464;19.014;2023-02-01T16:52:20;100140.56;;;5.14;87.50
58761;BME280;44529;47.464;19.014;2023-02-01T16:56:30;100131.22;;;5.12;87.79
58761;BME280;44529;47.464;19.014;2023-02-01T17:00:23;100129.63;;;5.11;87.51
58761;BME280;44529;47.464;19.014;2023-02-01T17:05:13;100115.13;;;5.12;87.45
58761;BME280;44529;47.464;19.014;2023-02-01T17:09:25;100107.22;;;4.92;89.11
58761;BME280;44529;47.464;19.014;2023-02-01T17:13:50;100122.00;;;4.84;88.62
58761;BME280;44529;47.464;19.014;2023-02-01T17:17:55;100127.91;;;4.81;87.85
58761;BME280;44529;47.464;19.014;2023-02-01T17:22:08;100124.72;;;4.79;87.10
58761;BME280;44529;47.464;19.014;2023-02-01T17:26:24;100121.22;;;4.83;86.59
58761;BME280;44529;47.464;19.014;2023-02-01T17:31:35;100127.38;;;4.84;85.89
58761;BME280;44529;47.464;19.014;2023-02-01T17:35:36;100125.72;;;4.88;85.17
58761;BME280;44529;47.464;19.014;2023-02-01T17:43:42;100115.97;;;5.02;83.37
58761;BME280;44529;47.464;19.014;2023-02-01T18:16:28;100148.97;;;5.03;80.56
58761;BME280;44529;47.464;19.014;2023-02-01T18:20:49;100144.22;;;4.89;80.70
58761;BME280;44529;47.464;19.014;2023-02-01T18:41:34;100162.44;;;4.82;80.47
58761;BME280;44529;47.464;19.014;2023-02-01T19:14:04;100129.75;;;4.85;79.14
58761;BME280;44529;47.464;19.014;2023-02-01T19:28:47;100120.25;;;5.08;77.17
58761;BME280;44529;47.464;19.014;2023-02-01T19:32:43;100113.56;;;5.06;76.88
58761;BME280;44529;47.464;19.014;2023-02-01T19:37:06;100114.87;;;5.08;77.19
58761;BME280;44529;47.464;19.014;2023-02-01T19:41:18;100109.50;;;5.08;77.07
58761;BME280;44529;47.464;19.014;2023-02-01T19:45:05;100098.31;;;5.01;76.52
58761;BME280;44529;47.464;19.014;2023-02-01T20:00:36;100104.44;;;5.07;76.18
58761;BME280;44529;47.464;19.014;2023-02-01T20:03:52;100115.41;;;5.10;75.55
58761;BME280;44529;47.464;19.014;2023-02-01T20:08:15;100105.94;;;5.23;74.87
58761;BME280;44529;47.464;19.014;2023-02-01T20:12:17;100104.06;;;5.24;75.15
58761;BME280;44529;47.464;19.014;2023-02-01T20:19:59;100101.91;;;5.26;75.22
58761;BME280;44529;47.464;19.014;2023-02-01T20:23:30;100115.09;;;5.17;75.51
58761;BME280;44529;47.464;19.014;2023-02-01T20:26:55;100099.25;;;5.21;75.33
58761;BME280;44529;47.464;19.014;2023-02-01T20:47:33;100127.91;;;5.25;76.13
58761;BME280;44529;47.464;19.014;2023-02-01T21:02:17;100173.09;;;5.03;82.31
58761;BME280;44529;47.464;19.014;2023-02-01T21:06:19;100128.69;;;4.86;84.45
58761;BME280;44529;47.464;19.014;2023-02-01T21:09:43;100137.03;;;4.75;85.75
58761;BME280;44529;47.464;19.014;2023-02-01T21:13:26;100125.63;;;4.49;86.87
58761;BME280;44529;47.464;19.014;2023-02-01T21:25:41;100124.91;;;4.38;88.12
58761;BME280;44529;47.464;19.014;2023-02-01T21:29:00;100125.94;;;4.42;88.78
58761;BME280;44529;47.464;19.014;2023-02-01T21:33:08;100126.50;;;4.29;89.58
58761;BME280;44529;47.464;19.014;2023-02-01T21:37:20;100119.56;;;4.28;89.94
58761;BME280;44529;47.464;19.014;2023-02-01T22:00:22;100134.06;;;4.01;95.91
58761;BME280;44529;47.464;19.014;2023-02-01T22:04:47;100159.22;;;3.95;97.00
58761;BME280;44529;47.464;19.014;2023-02-01T22:52:09;100084.78;;;4.18;95.77
58761;BME280;44529;47.464;19.014;2023-02-01T23:27:01;100055.31;;;4.33;91.10
58761;BME280;44529;47.464;19.014;2023-02-01T23:31:12;100059.38;;;4.20;90.56
58761;BME280;44529;47.464;19.014;2023-02-01T23:35:07;100032.59;;;4.25;90.36
58761;BME280;44529;47.464;19.014;2023-02-01T23:57:32;100029.44;;;4.13;92.22
